sensor_id;sensor_type;location;lat;lon;timestamp;P1;durP1;ratioP1;P2;durP2;ratioP2
17197;SDS011;8715;51.010;6.812;2023-11-22T00:00:11;818.83;;;773.70;;
17197;SDS011;8715;51.010;6.812;2023-11-22T00:02:57;837.08;;;790.00;;
17197;SDS011;8715;51.010;6.812;2023-11-22T00:05:42;822.33;;;776.17;;
17197;SDS011;8715;51.010;6.812;2023-11-22T00:08:27;829.40;;;783.00;;
17197;SDS011;8715;51.010;6.812;2023-11-22T00:11:13;832.75;;;785.85;;
17197;SDS011;8715;51.010;6.812;2023-11-22T00:13:58;823.92;;;777.40;;
17197;SDS011;8715;51.010;6.812;2023-11-22T00:16:45;836.85;;;789.15;;
17197;SDS011;8715;51.010;6.812;2023-11-22T00:19:30;831.40;;;784.35;;
17197;SDS011;8715;51.010;6.812;2023-11-22T00:22:16;835.95;;;788.65;;
17197;SDS011;8715;51.010;6.812;2023-11-22T00:25:01;832.67;;;785.25;;
17197;SDS011;8715;51.010;6.812;2023-11-22T00:27:47;839.53;;;791.50;;
17197;SDS011;8715;51.010;6.812;2023-11-22T00:30:32;836.78;;;788.78;;
17197;SDS011;8715;51.010;6.812;2023-11-22T00:33:18;840.45;;;791.88;;
17197;SDS011;8715;51.010;6.812;2023-11-22T00:36:03;830.58;;;783.15;;
17197;SDS011;8715;51.010;6.812;2023-11-22T00:38:51;840.30;;;791.58;;
17197;SDS011;8715;51.010;6.812;2023-11-22T00:41:36;841.92;;;793.30;;
17197;SDS011;8715;51.010;6.812;2023-11-22T00:44:21;841.92;;;792.97;;
17197;SDS011;8715;51.010;6.812;2023-11-22T00:47:06;849.90;;;800.13;;
17197;SDS011;8715;51.010;6.812;2023-11-22T00:49:52;840.42;;;791.30;;
17197;SDS011;8715;51.010;6.812;2023-11-22T00:52:37;832.67;;;784.75;;
17197;SDS011;8715;51.010;6.812;2023-11-22T00:55:22;844.88;;;795.78;;
17197;SDS011;8715;51.010;6.812;2023-11-22T00:58:08;836.63;;;788.35;;
17197;SDS011;8715;51.010;6.812;2023-11-22T01:00:53;847.30;;;797.67;;
17197;SDS011;8715;51.010;6.812;2023-11-22T01:03:38;838.35;;;790.22;;
17197;SDS011;8715;51.010;6.812;2023-11-22T01:06:24;838.63;;;789.83;;
17197;SDS011;8715;51.010;6.812;2023-11-22T01:09:09;837.42;;;788.75;;
17197;SDS011;8715;51.010;6.812;2023-11-22T01:11:57;836.17;;;787.60;;
17197;SDS011;8715;51.010;6.812;2023-11-22T01:14:42;843.40;;;794.15;;
17197;SDS011;8715;51.010;6.812;2023-11-22T01:17:27;844.83;;;795.88;;
17197;SDS011;8715;51.010;6.812;2023-11-22T01:20:12;839.20;;;790.80;;
17197;SDS011;8715;51.010;6.812;2023-11-22T01:22:59;842.45;;;793.55;;
17197;SDS011;8715;51.010;6.812;2023-11-22T01:25:44;844.58;;;795.67;;
17197;SDS011;8715;51.010;6.812;2023-11-22T01:28:29;841.03;;;793.00;;
17197;SDS011;8715;51.010;6.812;2023-11-22T01:31:17;838.92;;;790.63;;
17197;SDS011;8715;51.010;6.812;2023-11-22T01:34:04;838.58;;;790.85;;
17197;SDS011;8715;51.010;6.812;2023-11-22T01:36:49;832.90;;;785.20;;
17197;SDS011;8715;51.010;6.812;2023-11-22T01:39:38;837.50;;;789.28;;
17197;SDS011;8715;51.010;6.812;2023-11-22T01:42:24;837.00;;;788.75;;
17197;SDS011;8715;51.010;6.812;2023-11-22T01:45:09;836.40;;;788.05;;
17197;SDS011;8715;51.010;6.812;2023-11-22T01:47:54;834.95;;;787.25;;
17197;SDS011;8715;51.010;6.812;2023-11-22T01:50:40;839.53;;;791.25;;
17197;SDS011;8715;51.010;6.812;2023-11-22T01:53:27;841.13;;;793.22;;
17197;SDS011;8715;51.010;6.812;2023-11-22T01:56:13;834.03;;;787.28;;
17197;SDS011;8715;51.010;6.812;2023-11-22T01:59:00;835.05;;;787.75;;
17197;SDS011;8715;51.010;6.812;2023-11-22T02:01:45;825.90;;;779.70;;
17197;SDS011;8715;51.010;6.812;2023-11-22T02:04:29;825.25;;;778.92;;
17197;SDS011;8715;51.010;6.812;2023-11-22T02:07:15;821.67;;;775.75;;
17197;SDS011;8715;51.010;6.812;2023-11-22T02:10:00;840.95;;;793.03;;
17197;SDS011;8715;51.010;6.812;2023-11-22T02:12:47;830.45;;;783.78;;
17197;SDS011;8715;51.010;6.812;2023-11-22T02:15:32;833.60;;;786.53;;
17197;SDS011;8715;51.010;6.812;2023-11-22T02:18:17;828.97;;;781.97;;
17197;SDS011;8715;51.010;6.812;2023-11-22T02:21:02;831.03;;;784.38;;
17197;SDS011;8715;51.010;6.812;2023-11-22T02:23:49;828.58;;;782.20;;
17197;SDS011;8715;51.010;6.812;2023-11-22T02:26:34;836.85;;;789.67;;
17197;SDS011;8715;51.010;6.812;2023-11-22T02:29:20;829.30;;;782.78;;
17197;SDS011;8715;51.010;6.812;2023-11-22T02:32:05;823.90;;;778.53;;
17197;SDS011;8715;51.010;6.812;2023-11-22T02:34:50;822.80;;;776.97;;
17197;SDS011;8715;51.010;6.812;2023-11-22T02:37:35;826.53;;;780.95;;
17197;SDS011;8715;51.010;6.812;2023-11-22T02:40:22;823.50;;;778.00;;
17197;SDS011;8715;51.010;6.812;2023-11-22T02:43:07;833.20;;;786.97;;
17197;SDS011;8715;51.010;6.812;2023-11-22T02:45:52;834.85;;;788.05;;
17197;SDS011;8715;51.010;6.812;2023-11-22T02:48:38;833.13;;;787.05;;
17197;SDS011;8715;51.010;6.812;2023-11-22T02:51:23;826.25;;;780.20;;
17197;SDS011;8715;51.010;6.812;2023-11-22T02:54:09;833.70;;;787.38;;
17197;SDS011;8715;51.010;6.812;2023-11-22T02:56:55;830.35;;;783.15;;
17197;SDS011;8715;51.010;6.812;2023-11-22T02:59:41;823.50;;;777.22;;
17197;SDS011;8715;51.010;6.812;2023-11-22T03:02:26;820.67;;;774.95;;
17197;SDS011;8715;51.010;6.812;2023-11-22T03:05:11;820.35;;;775.15;;
17197;SDS011;8715;51.010;6.812;2023-11-22T03:07:57;826.88;;;781.08;;
17197;SDS011;8715;51.010;6.812;2023-11-22T03:10:42;832.53;;;786.25;;
17197;SDS011;8715;51.010;6.812;2023-11-22T03:13:29;823.35;;;778.35;;
17197;SDS011;8715;51.010;6.812;2023-11-22T03:16:14;828.17;;;782.72;;
17197;SDS011;8715;51.010;6.812;2023-11-22T03:18:59;825.35;;;779.90;;
17197;SDS011;8715;51.010;6.812;2023-11-22T03:21:45;806.72;;;763.10;;
17197;SDS011;8715;51.010;6.812;2023-11-22T03:24:30;820.75;;;776.13;;
17197;SDS011;8715;51.010;6.812;2023-11-22T03:27:18;817.00;;;772.70;;
17197;SDS011;8715;51.010;6.812;2023-11-22T03:30:06;807.83;;;764.67;;
17197;SDS011;8715;51.010;6.812;2023-11-22T03:32:54;806.13;;;763.15;;
17197;SDS011;8715;51.010;6.812;2023-11-22T03:35:40;811.78;;;768.08;;
17197;SDS011;8715;51.010;6.812;2023-11-22T03:38:26;809.97;;;766.47;;
17197;SDS011;8715;51.010;6.812;2023-11-22T03:41:11;813.38;;;769.67;;
17197;SDS011;8715;51.010;6.812;2023-11-22T03:43:56;815.30;;;771.40;;
17197;SDS011;8715;51.010;6.812;2023-11-22T03:46:42;808.75;;;765.95;;
17197;SDS011;8715;51.010;6.812;2023-11-22T03:49:27;820.30;;;775.60;;
17197;SDS011;8715;51.010;6.812;2023-11-22T03:52:12;814.78;;;770.95;;
17197;SDS011;8715;51.010;6.812;2023-11-22T03:54:58;814.20;;;770.42;;
17197;SDS011;8715;51.010;6.812;2023-11-22T03:57:43;816.20;;;772.70;;
17197;SDS011;8715;51.010;6.812;2023-11-22T04:00:28;805.63;;;762.63;;
17197;SDS011;8715;51.010;6.812;2023-11-22T04:03:14;819.22;;;775.17;;
17197;SDS011;8715;51.010;6.812;2023-11-22T04:05:59;810.33;;;767.13;;
17197;SDS011;8715;51.010;6.812;2023-11-22T04:08:44;808.53;;;765.38;;
17197;SDS011;8715;51.010;6.812;2023-11-22T04:11:29;803.67;;;760.95;;
17197;SDS011;8715;51.010;6.812;2023-11-22T04:14:14;808.30;;;765.28;;
17197;SDS011;8715;51.010;6.812;2023-11-22T04:16:59;800.00;;;757.88;;
17197;SDS011;8715;51.010;6.812;2023-11-22T04:19:46;810.42;;;766.97;;
17197;SDS011;8715;51.010;6.812;2023-11-22T04:22:31;801.08;;;758.58;;
17197;SDS011;8715;51.010;6.812;2023-11-22T04:25:17;796.63;;;755.00;;
17197;SDS011;8715;51.010;6.812;2023-11-22T04:28:03;802.67;;;760.28;;
17197;SDS011;8715;51.010;6.812;2023-11-22T04:30:48;803.92;;;761.22;;
17197;SDS011;8715;51.010;6.812;2023-11-22T04:33:32;797.72;;;754.92;;
17197;SDS011;8715;51.010;6.812;2023-11-22T04:36:19;799.17;;;756.97;;
17197;SDS011;8715;51.010;6.812;2023-11-22T04:39:04;794.97;;;753.30;;
17197;SDS011;8715;51.010;6.812;2023-11-22T04:41:50;797.97;;;755.67;;
17197;SDS011;8715;51.010;6.812;2023-11-22T04:44:35;801.42;;;759.47;;
17197;SDS011;8715;51.010;6.812;2023-11-22T04:47:21;807.10;;;764.53;;
17197;SDS011;8715;51.010;6.812;2023-11-22T04:50:06;806.88;;;764.65;;
17197;SDS011;8715;51.010;6.812;2023-11-22T04:52:53;799.25;;;757.10;;
17197;SDS011;8715;51.010;6.812;2023-11-22T04:55:38;799.83;;;757.60;;
17197;SDS011;8715;51.010;6.812;2023-11-22T04:58:23;799.38;;;756.88;;
17197;SDS011;8715;51.010;6.812;2023-11-22T05:01:08;787.50;;;746.88;;
17197;SDS011;8715;51.010;6.812;2023-11-22T05:03:54;793.63;;;752.00;;
17197;SDS011;8715;51.010;6.812;2023-11-22T05:06:39;793.70;;;752.08;;
17197;SDS011;8715;51.010;6.812;2023-11-22T05:09:26;790.78;;;749.25;;
17197;SDS011;8715;51.010;6.812;2023-11-22T05:12:11;788.75;;;747.13;;
17197;SDS011;8715;51.010;6.812;2023-11-22T05:14:58;789.90;;;748.80;;
17197;SDS011;8715;51.010;6.812;2023-11-22T05:17:43;786.67;;;745.92;;
17197;SDS011;8715;51.010;6.812;2023-11-22T05:20:28;792.53;;;751.67;;
17197;SDS011;8715;51.010;6.812;2023-11-22T05:23:13;790.65;;;749.45;;
17197;SDS011;8715;51.010;6.812;2023-11-22T05:25:59;783.78;;;743.58;;
17197;SDS011;8715;51.010;6.812;2023-11-22T05:28:44;786.15;;;745.30;;
17197;SDS011;8715;51.010;6.812;2023-11-22T05:31:31;792.42;;;751.88;;
17197;SDS011;8715;51.010;6.812;2023-11-22T05:34:16;781.60;;;742.20;;
17197;SDS011;8715;51.010;6.812;2023-11-22T05:37:01;775.97;;;736.25;;
17197;SDS011;8715;51.010;6.812;2023-11-22T05:39:46;786.33;;;746.05;;
17197;SDS011;8715;51.010;6.812;2023-11-22T05:42:32;778.28;;;738.10;;
17197;SDS011;8715;51.010;6.812;2023-11-22T05:45:18;774.25;;;734.08;;
17197;SDS011;8715;51.010;6.812;2023-11-22T05:48:03;777.88;;;738.47;;
17197;SDS011;8715;51.010;6.812;2023-11-22T05:50:48;771.45;;;732.92;;
17197;SDS011;8715;51.010;6.812;2023-11-22T05:53:33;777.65;;;738.83;;
17197;SDS011;8715;51.010;6.812;2023-11-22T05:56:19;780.47;;;740.97;;
17197;SDS011;8715;51.010;6.812;2023-11-22T05:59:05;782.60;;;742.97;;
17197;SDS011;8715;51.010;6.812;2023-11-22T06:01:50;772.45;;;733.70;;
17197;SDS011;8715;51.010;6.812;2023-11-22T06:04:35;777.15;;;738.30;;
17197;SDS011;8715;51.010;6.812;2023-11-22T06:07:20;774.67;;;735.17;;
17197;SDS011;8715;51.010;6.812;2023-11-22T06:10:06;771.13;;;731.75;;
17197;SDS011;8715;51.010;6.812;2023-11-22T06:12:51;780.85;;;741.75;;
17197;SDS011;8715;51.010;6.812;2023-11-22T06:15:38;778.25;;;738.15;;
17197;SDS011;8715;51.010;6.812;2023-11-22T06:18:23;773.67;;;733.97;;
17197;SDS011;8715;51.010;6.812;2023-11-22T06:21:13;771.22;;;732.50;;
17197;SDS011;8715;51.010;6.812;2023-11-22T06:23:58;769.72;;;731.40;;
17197;SDS011;8715;51.010;6.812;2023-11-22T06:26:43;771.80;;;732.83;;
17197;SDS011;8715;51.010;6.812;2023-11-22T06:29:29;774.22;;;735.85;;
17197;SDS011;8715;51.010;6.812;2023-11-22T06:32:16;784.15;;;744.33;;
17197;SDS011;8715;51.010;6.812;2023-11-22T06:35:00;781.75;;;742.00;;
17197;SDS011;8715;51.010;6.812;2023-11-22T06:37:46;774.08;;;734.55;;
17197;SDS011;8715;51.010;6.812;2023-11-22T06:40:31;778.90;;;739.25;;
17197;SDS011;8715;51.010;6.812;2023-11-22T06:43:17;767.35;;;728.40;;
17197;SDS011;8715;51.010;6.812;2023-11-22T06:46:02;768.10;;;729.30;;
17197;SDS011;8715;51.010;6.812;2023-11-22T06:48:51;778.53;;;740.10;;
17197;SDS011;8715;51.010;6.812;2023-11-22T06:51:37;769.95;;;731.40;;
17197;SDS011;8715;51.010;6.812;2023-11-22T06:54:22;767.75;;;728.90;;
17197;SDS011;8715;51.010;6.812;2023-11-22T06:57:07;768.25;;;729.97;;
17197;SDS011;8715;51.010;6.812;2023-11-22T06:59:52;766.63;;;728.30;;
17197;SDS011;8715;51.010;6.812;2023-11-22T07:02:37;767.35;;;728.95;;
17197;SDS011;8715;51.010;6.812;2023-11-22T07:05:24;762.03;;;724.28;;
17197;SDS011;8715;51.010;6.812;2023-11-22T07:08:10;763.40;;;725.30;;
17197;SDS011;8715;51.010;6.812;2023-11-22T07:10:55;766.83;;;727.85;;
17197;SDS011;8715;51.010;6.812;2023-11-22T07:13:40;759.28;;;721.88;;
17197;SDS011;8715;51.010;6.812;2023-11-22T07:16:25;756.53;;;719.40;;
17197;SDS011;8715;51.010;6.812;2023-11-22T07:19:10;757.30;;;720.03;;
17197;SDS011;8715;51.010;6.812;2023-11-22T07:21:57;759.65;;;722.47;;
17197;SDS011;8715;51.010;6.812;2023-11-22T07:24:42;760.13;;;722.85;;
17197;SDS011;8715;51.010;6.812;2023-11-22T07:27:28;763.17;;;725.17;;
17197;SDS011;8715;51.010;6.812;2023-11-22T07:30:14;764.97;;;727.15;;
17197;SDS011;8715;51.010;6.812;2023-11-22T07:32:59;769.65;;;731.72;;
17197;SDS011;8715;51.010;6.812;2023-11-22T07:35:45;763.47;;;725.78;;
17197;SDS011;8715;51.010;6.812;2023-11-22T07:38:31;769.85;;;731.33;;
17197;SDS011;8715;51.010;6.812;2023-11-22T07:41:17;775.72;;;737.45;;
17197;SDS011;8715;51.010;6.812;2023-11-22T07:44:02;765.28;;;726.95;;
17197;SDS011;8715;51.010;6.812;2023-11-22T07:46:47;759.20;;;721.90;;
17197;SDS011;8715;51.010;6.812;2023-11-22T07:49:32;755.83;;;718.17;;
17197;SDS011;8715;51.010;6.812;2023-11-22T07:52:20;765.45;;;727.65;;
17197;SDS011;8715;51.010;6.812;2023-11-22T07:55:06;766.15;;;728.58;;
17197;SDS011;8715;51.010;6.812;2023-11-22T08:00:40;767.13;;;728.53;;
17197;SDS011;8715;51.010;6.812;2023-11-22T08:03:26;773.22;;;734.35;;
17197;SDS011;8715;51.010;6.812;2023-11-22T08:06:11;759.13;;;720.40;;
17197;SDS011;8715;51.010;6.812;2023-11-22T08:08:57;760.03;;;722.83;;
17197;SDS011;8715;51.010;6.812;2023-11-22T08:11:46;756.58;;;719.60;;
17197;SDS011;8715;51.010;6.812;2023-11-22T08:14:31;779.53;;;739.67;;
17197;SDS011;8715;51.010;6.812;2023-11-22T08:17:16;772.58;;;733.28;;
17197;SDS011;8715;51.010;6.812;2023-11-22T08:20:01;776.08;;;736.58;;
17197;SDS011;8715;51.010;6.812;2023-11-22T08:22:49;778.70;;;739.72;;
17197;SDS011;8715;51.010;6.812;2023-11-22T08:25:34;767.92;;;728.55;;
17197;SDS011;8715;51.010;6.812;2023-11-22T08:28:22;780.50;;;741.10;;
17197;SDS011;8715;51.010;6.812;2023-11-22T08:31:07;774.55;;;735.17;;
17197;SDS011;8715;51.010;6.812;2023-11-22T08:33:54;774.15;;;734.83;;
17197;SDS011;8715;51.010;6.812;2023-11-22T08:36:39;791.35;;;749.83;;
17197;SDS011;8715;51.010;6.812;2023-11-22T08:39:24;797.00;;;755.70;;
17197;SDS011;8715;51.010;6.812;2023-11-22T08:42:09;783.13;;;742.85;;
17197;SDS011;8715;51.010;6.812;2023-11-22T08:44:55;781.63;;;740.88;;
17197;SDS011;8715;51.010;6.812;2023-11-22T08:47:40;791.20;;;750.15;;
17197;SDS011;8715;51.010;6.812;2023-11-22T08:50:25;798.63;;;756.45;;
17197;SDS011;8715;51.010;6.812;2023-11-22T08:53:10;788.25;;;747.67;;
17197;SDS011;8715;51.010;6.812;2023-11-22T08:55:56;793.00;;;751.22;;
17197;SDS011;8715;51.010;6.812;2023-11-22T08:58:41;798.95;;;757.25;;
17197;SDS011;8715;51.010;6.812;2023-11-22T09:01:28;794.28;;;752.97;;
17197;SDS011;8715;51.010;6.812;2023-11-22T09:04:13;805.88;;;762.75;;
17197;SDS011;8715;51.010;6.812;2023-11-22T09:06:59;798.67;;;755.97;;
17197;SDS011;8715;51.010;6.812;2023-11-22T09:09:44;811.83;;;768.28;;
17197;SDS011;8715;51.010;6.812;2023-11-22T09:12:29;802.80;;;760.33;;
17197;SDS011;8715;51.010;6.812;2023-11-22T09:15:14;804.33;;;762.03;;
17197;SDS011;8715;51.010;6.812;2023-11-22T09:18:01;800.10;;;757.85;;
17197;SDS011;8715;51.010;6.812;2023-11-22T09:20:46;815.25;;;771.40;;
17197;SDS011;8715;51.010;6.812;2023-11-22T09:23:32;816.25;;;772.03;;
17197;SDS011;8715;51.010;6.812;2023-11-22T09:26:17;812.88;;;769.47;;
17197;SDS011;8715;51.010;6.812;2023-11-22T09:29:02;821.45;;;776.65;;
17197;SDS011;8715;51.010;6.812;2023-11-22T09:31:48;823.05;;;778.08;;
17197;SDS011;8715;51.010;6.812;2023-11-22T09:34:37;814.83;;;770.85;;
17197;SDS011;8715;51.010;6.812;2023-11-22T09:37:22;824.25;;;779.28;;
17197;SDS011;8715;51.010;6.812;2023-11-22T09:40:09;826.33;;;780.80;;
17197;SDS011;8715;51.010;6.812;2023-11-22T09:42:55;837.85;;;791.10;;
17197;SDS011;8715;51.010;6.812;2023-11-22T09:45:41;833.80;;;786.58;;
17197;SDS011;8715;51.010;6.812;2023-11-22T09:48:26;841.17;;;793.22;;
17197;SDS011;8715;51.010;6.812;2023-11-22T09:51:15;829.30;;;782.50;;
17197;SDS011;8715;51.010;6.812;2023-11-22T09:54:04;830.75;;;783.90;;
17197;SDS011;8715;51.010;6.812;2023-11-22T09:56:52;839.53;;;792.08;;
17197;SDS011;8715;51.010;6.812;2023-11-22T09:59:37;832.30;;;785.33;;
17197;SDS011;8715;51.010;6.812;2023-11-22T10:02:24;839.95;;;791.72;;
17197;SDS011;8715;51.010;6.812;2023-11-22T10:05:11;846.40;;;797.50;;
17197;SDS011;8715;51.010;6.812;2023-11-22T10:07:57;840.30;;;791.88;;
17197;SDS011;8715;51.010;6.812;2023-11-22T10:10:43;845.33;;;796.42;;
17197;SDS011;8715;51.010;6.812;2023-11-22T10:13:31;852.42;;;802.25;;
17197;SDS011;8715;51.010;6.812;2023-11-22T10:16:17;846.55;;;796.83;;
17197;SDS011;8715;51.010;6.812;2023-11-22T10:19:03;850.42;;;799.95;;
17197;SDS011;8715;51.010;6.812;2023-11-22T10:21:59;844.65;;;795.08;;
17197;SDS011;8715;51.010;6.812;2023-11-22T10:24:48;845.38;;;795.80;;
17197;SDS011;8715;51.010;6.812;2023-11-22T10:27:33;852.45;;;802.05;;
17197;SDS011;8715;51.010;6.812;2023-11-22T10:30:18;849.47;;;799.35;;
17197;SDS011;8715;51.010;6.812;2023-11-22T10:33:03;845.50;;;795.85;;
17197;SDS011;8715;51.010;6.812;2023-11-22T10:35:49;853.58;;;803.15;;
17197;SDS011;8715;51.010;6.812;2023-11-22T10:38:34;850.15;;;800.30;;
17197;SDS011;8715;51.010;6.812;2023-11-22T10:41:21;847.78;;;798.03;;
17197;SDS011;8715;51.010;6.812;2023-11-22T10:44:06;848.78;;;798.60;;
17197;SDS011;8715;51.010;6.812;2023-11-22T10:46:51;848.13;;;798.53;;
17197;SDS011;8715;51.010;6.812;2023-11-22T10:49:37;848.40;;;798.72;;
17197;SDS011;8715;51.010;6.812;2023-11-22T10:52:22;852.05;;;801.65;;
17197;SDS011;8715;51.010;6.812;2023-11-22T10:55:11;855.00;;;804.40;;
17197;SDS011;8715;51.010;6.812;2023-11-22T10:58:01;851.28;;;800.85;;
17197;SDS011;8715;51.010;6.812;2023-11-22T11:00:46;854.38;;;803.13;;
17197;SDS011;8715;51.010;6.812;2023-11-22T11:03:35;854.63;;;803.65;;
17197;SDS011;8715;51.010;6.812;2023-11-22T11:06:26;853.30;;;802.72;;
17197;SDS011;8715;51.010;6.812;2023-11-22T11:09:15;847.33;;;797.47;;
17197;SDS011;8715;51.010;6.812;2023-11-22T11:12:05;844.70;;;795.20;;
17197;SDS011;8715;51.010;6.812;2023-11-22T11:14:51;841.38;;;791.80;;
17197;SDS011;8715;51.010;6.812;2023-11-22T11:17:36;852.78;;;802.25;;
17197;SDS011;8715;51.010;6.812;2023-11-22T11:20:23;848.58;;;798.50;;
17197;SDS011;8715;51.010;6.812;2023-11-22T11:23:11;853.38;;;802.47;;
17197;SDS011;8715;51.010;6.812;2023-11-22T11:25:57;850.35;;;800.00;;
17197;SDS011;8715;51.010;6.812;2023-11-22T11:28:43;848.10;;;797.97;;
17197;SDS011;8715;51.010;6.812;2023-11-22T11:31:32;851.83;;;801.33;;
17197;SDS011;8715;51.010;6.812;2023-11-22T11:34:18;855.60;;;804.38;;
17197;SDS011;8715;51.010;6.812;2023-11-22T11:37:03;855.45;;;804.15;;
17197;SDS011;8715;51.010;6.812;2023-11-22T11:39:48;859.10;;;807.08;;
17197;SDS011;8715;51.010;6.812;2023-11-22T11:42:33;854.88;;;802.92;;
17197;SDS011;8715;51.010;6.812;2023-11-22T11:45:18;853.72;;;801.90;;
17197;SDS011;8715;51.010;6.812;2023-11-22T11:48:06;857.00;;;804.88;;
17197;SDS011;8715;51.010;6.812;2023-11-22T11:50:52;860.97;;;808.25;;
17197;SDS011;8715;51.010;6.812;2023-11-22T11:53:37;857.35;;;804.85;;
17197;SDS011;8715;51.010;6.812;2023-11-22T11:56:22;857.53;;;804.90;;
17197;SDS011;8715;51.010;6.812;2023-11-22T11:59:09;867.08;;;813.60;;
17197;SDS011;8715;51.010;6.812;2023-11-22T12:01:55;863.95;;;810.58;;
17197;SDS011;8715;51.010;6.812;2023-11-22T12:04:42;866.72;;;813.08;;
17197;SDS011;8715;51.010;6.812;2023-11-22T12:07:28;863.67;;;810.47;;
17197;SDS011;8715;51.010;6.812;2023-11-22T12:10:13;860.78;;;807.78;;
17197;SDS011;8715;51.010;6.812;2023-11-22T12:12:58;860.53;;;808.13;;
17197;SDS011;8715;51.010;6.812;2023-11-22T12:15:44;857.97;;;805.42;;
17197;SDS011;8715;51.010;6.812;2023-11-22T12:18:29;870.38;;;816.65;;
17197;SDS011;8715;51.010;6.812;2023-11-22T12:21:17;860.72;;;808.08;;
17197;SDS011;8715;51.010;6.812;2023-11-22T12:24:03;858.58;;;805.88;;
17197;SDS011;8715;51.010;6.812;2023-11-22T12:26:50;863.78;;;811.08;;
17197;SDS011;8715;51.010;6.812;2023-11-22T12:29:35;863.78;;;811.10;;
17197;SDS011;8715;51.010;6.812;2023-11-22T12:32:22;860.33;;;808.05;;
17197;SDS011;8715;51.010;6.812;2023-11-22T12:35:08;853.85;;;802.20;;
17197;SDS011;8715;51.010;6.812;2023-11-22T12:37:56;859.42;;;807.63;;
17197;SDS011;8715;51.010;6.812;2023-11-22T12:40:43;856.22;;;804.80;;
17197;SDS011;8715;51.010;6.812;2023-11-22T12:43:28;854.47;;;803.30;;
17197;SDS011;8715;51.010;6.812;2023-11-22T12:46:14;861.63;;;809.70;;
17197;SDS011;8715;51.010;6.812;2023-11-22T12:49:04;861.85;;;810.00;;
17197;SDS011;8715;51.010;6.812;2023-11-22T12:51:50;860.67;;;808.42;;
17197;SDS011;8715;51.010;6.812;2023-11-22T12:54:37;856.80;;;805.20;;
17197;SDS011;8715;51.010;6.812;2023-11-22T12:57:22;854.22;;;802.63;;
17197;SDS011;8715;51.010;6.812;2023-11-22T13:00:07;863.10;;;810.80;;
17197;SDS011;8715;51.010;6.812;2023-11-22T13:02:54;862.92;;;810.63;;
17197;SDS011;8715;51.010;6.812;2023-11-22T13:05:40;852.40;;;800.67;;
17197;SDS011;8715;51.010;6.812;2023-11-22T13:08:26;860.65;;;808.83;;
17197;SDS011;8715;51.010;6.812;2023-11-22T13:11:14;863.50;;;811.05;;
17197;SDS011;8715;51.010;6.812;2023-11-22T13:14:00;864.28;;;811.85;;
17197;SDS011;8715;51.010;6.812;2023-11-22T13:16:45;862.80;;;810.20;;
17197;SDS011;8715;51.010;6.812;2023-11-22T13:19:30;855.53;;;803.90;;
17197;SDS011;8715;51.010;6.812;2023-11-22T13:22:14;853.10;;;801.50;;
17197;SDS011;8715;51.010;6.812;2023-11-22T13:25:00;857.10;;;805.58;;
17197;SDS011;8715;51.010;6.812;2023-11-22T13:27:47;858.78;;;807.33;;
17197;SDS011;8715;51.010;6.812;2023-11-22T13:30:32;851.03;;;800.40;;
17197;SDS011;8715;51.010;6.812;2023-11-22T13:33:18;853.72;;;803.10;;
17197;SDS011;8715;51.010;6.812;2023-11-22T13:36:03;850.15;;;799.70;;
17197;SDS011;8715;51.010;6.812;2023-11-22T13:38:49;857.40;;;805.70;;
17197;SDS011;8715;51.010;6.812;2023-11-22T13:41:33;861.30;;;809.30;;
17197;SDS011;8715;51.010;6.812;2023-11-22T13:44:20;856.42;;;805.10;;
17197;SDS011;8715;51.010;6.812;2023-11-22T13:47:05;857.70;;;806.22;;
17197;SDS011;8715;51.010;6.812;2023-11-22T13:49:51;854.10;;;803.10;;
17197;SDS011;8715;51.010;6.812;2023-11-22T13:52:37;858.40;;;807.47;;
17197;SDS011;8715;51.010;6.812;2023-11-22T13:55:22;865.88;;;811.88;;
17197;SDS011;8715;51.010;6.812;2023-11-22T13:58:08;856.13;;;805.40;;
17197;SDS011;8715;51.010;6.812;2023-11-22T14:00:54;846.70;;;796.75;;
17197;SDS011;8715;51.010;6.812;2023-11-22T14:03:39;853.67;;;802.67;;
17197;SDS011;8715;51.010;6.812;2023-11-22T14:06:24;851.67;;;801.17;;
17197;SDS011;8715;51.010;6.812;2023-11-22T14:09:09;848.90;;;798.75;;
17197;SDS011;8715;51.010;6.812;2023-11-22T14:11:56;853.90;;;802.67;;
17197;SDS011;8715;51.010;6.812;2023-11-22T14:14:42;848.17;;;797.75;;
17197;SDS011;8715;51.010;6.812;2023-11-22T14:17:28;849.25;;;799.22;;
17197;SDS011;8715;51.010;6.812;2023-11-22T14:20:14;851.60;;;801.25;;
17197;SDS011;8715;51.010;6.812;2023-11-22T14:22:59;853.03;;;802.35;;
17197;SDS011;8715;51.010;6.812;2023-11-22T14:25:44;847.17;;;797.35;;
17197;SDS011;8715;51.010;6.812;2023-11-22T14:28:29;841.70;;;792.50;;
17197;SDS011;8715;51.010;6.812;2023-11-22T14:31:14;845.65;;;796.08;;
17197;SDS011;8715;51.010;6.812;2023-11-22T14:34:01;851.15;;;801.25;;
17197;SDS011;8715;51.010;6.812;2023-11-22T14:36:48;845.90;;;796.63;;
17197;SDS011;8715;51.010;6.812;2023-11-22T14:39:33;846.65;;;797.25;;
17197;SDS011;8715;51.010;6.812;2023-11-22T14:42:19;850.10;;;800.20;;
17197;SDS011;8715;51.010;6.812;2023-11-22T14:45:04;853.97;;;803.63;;
17197;SDS011;8715;51.010;6.812;2023-11-22T14:47:49;847.88;;;798.20;;
17197;SDS011;8715;51.010;6.812;2023-11-22T14:50:36;849.25;;;799.53;;
17197;SDS011;8715;51.010;6.812;2023-11-22T14:53:21;844.30;;;795.38;;
17197;SDS011;8715;51.010;6.812;2023-11-22T14:56:09;848.00;;;797.95;;
17197;SDS011;8715;51.010;6.812;2023-11-22T14:58:54;842.00;;;793.25;;
17197;SDS011;8715;51.010;6.812;2023-11-22T15:01:39;843.42;;;794.45;;
17197;SDS011;8715;51.010;6.812;2023-11-22T15:04:25;843.35;;;794.10;;
17197;SDS011;8715;51.010;6.812;2023-11-22T15:07:12;841.42;;;792.92;;
17197;SDS011;8715;51.010;6.812;2023-11-22T15:09:58;844.63;;;795.83;;
17197;SDS011;8715;51.010;6.812;2023-11-22T15:12:43;843.50;;;795.10;;
17197;SDS011;8715;51.010;6.812;2023-11-22T15:15:30;852.60;;;802.97;;
17197;SDS011;8715;51.010;6.812;2023-11-22T15:18:15;843.08;;;794.47;;
17197;SDS011;8715;51.010;6.812;2023-11-22T15:21:00;844.42;;;795.03;;
17197;SDS011;8715;51.010;6.812;2023-11-22T15:23:47;840.00;;;791.70;;
17197;SDS011;8715;51.010;6.812;2023-11-22T15:26:32;844.95;;;795.97;;
17197;SDS011;8715;51.010;6.812;2023-11-22T15:29:18;844.28;;;795.47;;
17197;SDS011;8715;51.010;6.812;2023-11-22T15:32:03;847.90;;;798.75;;
17197;SDS011;8715;51.010;6.812;2023-11-22T15:34:48;844.60;;;796.17;;
17197;SDS011;8715;51.010;6.812;2023-11-22T15:37:34;839.78;;;791.45;;
17197;SDS011;8715;51.010;6.812;2023-11-22T15:40:20;847.50;;;798.55;;
17197;SDS011;8715;51.010;6.812;2023-11-22T15:43:05;845.60;;;796.97;;
17197;SDS011;8715;51.010;6.812;2023-11-22T15:45:51;844.63;;;796.17;;
17197;SDS011;8715;51.010;6.812;2023-11-22T15:48:38;841.22;;;793.05;;
17197;SDS011;8715;51.010;6.812;2023-11-22T15:51:23;839.28;;;791.13;;
17197;SDS011;8715;51.010;6.812;2023-11-22T15:54:08;843.78;;;795.30;;
17197;SDS011;8715;51.010;6.812;2023-11-22T15:56:56;847.60;;;798.97;;